Portada
METAR-TAF:

METAR-TAF

Aeroports :

Searcy Municipal Airport

Searcy, Arkansas, Estats Units d'Amèrica

latitud: 35-12-43N, longitud: 091-44-14W, altitud: 81 m

Observació

L'informe es va fer fa 10 minuts, a les 20:56 UTC
Vent 7 kt del Nord/Nord-Est
Temperatura 8°C
Humitat 93%
Pressió 1017 hPa
Visibilitat: 16.1 km
Cel cobert a una alçada de 1000 ft
pluja

METAR: KSRC 222056Z AUTO 03007KT 10SM -RA OVC010 08/07 A3002 RMK AO2 SLP170 P0000 60001 T00780072 56017

Hora: 15:06 (21:06 UTC)


TAF: manca

Observacions i pronòstics meteorològics de més de 4000 aeroports (METAR i TAF).

Les estacions disponibles són els punts grocs i vermells al mapa.

Posi el ratolí al punt desitjat per veure el nom de l'estació.

Feu clic per veure les observacions i els pronòstics meteorològics.

Per canviar el mapa: feu clic els botons verds amb una creu de color negre per apropar; al botó verd amb un guió per allunyar la imatge; o en les fletxes verdes per a mapes adjacents.


METAR-TAF: